createdAt,value
2022-11-18T00:00:54.082Z,0
2022-11-18T00:01:55.131Z,0
2022-11-18T00:02:55.919Z,0
2022-11-18T00:03:56.131Z,0
2022-11-18T00:04:56.317Z,0
2022-11-18T00:05:55.924Z,0
2022-11-18T00:06:56.998Z,0
2022-11-18T00:07:58.025Z,0
2022-11-18T00:08:58.068Z,0
2022-11-18T00:09:58.975Z,0
2022-11-18T00:10:59.904Z,0
2022-11-18T00:12:01.114Z,0
2022-11-18T00:13:01.407Z,0
2022-11-18T00:14:01.613Z,0
2022-11-18T00:15:01.527Z,0
2022-11-18T00:16:02.166Z,0
2022-11-18T00:17:03.651Z,0
2022-11-18T00:18:03.607Z,0
2022-11-18T00:19:04.042Z,0
2022-11-18T00:20:05.245Z,0
2022-11-18T00:21:05.732Z,0
2022-11-18T00:22:05.924Z,0
2022-11-18T00:23:05.541Z,0
2022-11-18T00:24:06.176Z,0
2022-11-18T00:25:07.387Z,0
2022-11-18T00:26:07.279Z,0
2022-11-18T00:27:08.476Z,0
2022-11-18T00:28:09.402Z,0
2022-11-18T00:29:09.726Z,0
2022-11-18T00:30:09.359Z,0
2022-11-18T00:31:10.554Z,0
2022-11-18T00:32:11.212Z,0
2022-11-18T00:33:12.465Z,0
2022-11-18T00:34:13.115Z,0
2022-11-18T00:35:14.332Z,0
2022-11-18T00:36:14.527Z,0
2022-11-18T00:37:15.436Z,0
2022-11-18T00:38:16.355Z,0
2022-11-18T00:39:17.513Z,0
2022-11-18T00:40:17.511Z,0
2022-11-18T00:41:17.721Z,0
2022-11-18T00:42:18.938Z,0
2022-11-18T00:43:18.841Z,0
2022-11-18T00:44:25.866Z,0
2022-11-18T00:45:20.775Z,0
2022-11-18T00:46:21.965Z,0
2022-11-18T00:47:23.172Z,0
2022-11-18T00:48:23.445Z,0
2022-11-18T00:49:23.729Z,0
2022-11-18T00:50:23.604Z,0
2022-11-18T00:51:24.527Z,0
2022-11-18T00:52:25.441Z,0
2022-11-18T00:53:25.923Z,0
2022-11-18T00:54:25.832Z,0
2022-11-18T00:55:27.044Z,0
2022-11-18T00:56:26.664Z,0
2022-11-18T00:57:28.144Z,0
2022-11-18T00:58:27.790Z,0
2022-11-18T00:59:28.805Z,0
2022-11-18T01:00:28.723Z,0
2022-11-18T01:01:28.743Z,0
2022-11-18T01:02:29.985Z,0
2022-11-18T01:03:30.502Z,0
2022-11-18T01:04:30.151Z,0
2022-11-18T01:05:31.052Z,0
2022-11-18T01:06:31.950Z,0
2022-11-18T01:07:33.613Z,0
2022-11-18T01:08:34.134Z,0
2022-11-18T01:09:34.441Z,0
2022-11-18T01:10:35.080Z,0
2022-11-18T01:11:36.003Z,0
2022-11-18T01:12:37.493Z,0
2022-11-18T01:13:37.423Z,0
2022-11-18T01:14:38.347Z,0
2022-11-18T01:15:38.260Z,0
2022-11-18T01:16:39.176Z,0
2022-11-18T01:17:40.066Z,0
2022-11-18T01:18:41.273Z,0
2022-11-18T01:19:42.279Z,0
2022-11-18T01:20:41.617Z,0
2022-11-18T01:21:43.249Z,0
2022-11-18T01:22:43.881Z,0
2022-11-18T01:23:45.073Z,0
2022-11-18T01:24:46.303Z,0
2022-11-18T01:25:46.518Z,0
2022-11-18T01:26:46.731Z,0
2022-11-18T01:27:47.116Z,0
2022-11-18T01:28:47.047Z,0
2022-11-18T01:29:48.435Z,0
2022-11-18T01:30:48.048Z,0
2022-11-18T01:32:33.205Z,0
2022-11-18T01:32:50.417Z,0
2022-11-18T01:33:50.662Z,0
2022-11-18T01:34:50.904Z,0
2022-11-18T01:35:51.382Z,0
2022-11-18T01:36:51.666Z,0
2022-11-18T01:37:51.557Z,0
2022-11-18T01:38:52.175Z,0
2022-11-18T01:39:52.597Z,0
2022-11-18T01:40:54.085Z,0
2022-11-18T01:41:54.021Z,0
2022-11-18T01:42:54.650Z,0
2022-11-18T01:43:55.605Z,0
2022-11-18T01:44:56.089Z,0
2022-11-18T01:45:56.283Z,0
2022-11-18T01:46:55.906Z,0
2022-11-18T01:47:56.520Z,0
2022-11-18T01:48:57.584Z,0
2022-11-18T01:49:57.920Z,0
2022-11-18T01:50:57.798Z,0
2022-11-18T01:51:59.001Z,0
2022-11-18T01:53:03.967Z,0
2022-11-18T01:53:59.615Z,0
2022-11-18T01:55:00.819Z,0
2022-11-18T01:56:00.715Z,0
2022-11-18T01:57:01.901Z,0
2022-11-18T01:58:01.817Z,0
2022-11-18T01:59:03.314Z,0
2022-11-18T02:00:03.934Z,0
2022-11-18T02:01:04.396Z,0
2022-11-18T02:02:11.253Z,0
2022-11-18T02:03:04.590Z,0
2022-11-18T02:04:05.567Z,0
2022-11-18T02:05:06.807Z,0
2022-11-18T02:06:07.286Z,0
2022-11-18T02:07:08.034Z,0
2022-11-18T02:08:07.680Z,0
2022-11-18T02:09:08.306Z,0
2022-11-18T02:10:09.359Z,0
2022-11-18T02:11:09.974Z,0
2022-11-18T02:12:11.507Z,0
2022-11-18T02:13:11.789Z,0
2022-11-18T02:14:11.992Z,0
2022-11-18T02:15:11.930Z,0
2022-11-18T02:16:12.560Z,0
2022-11-18T02:17:13.792Z,0
2022-11-18T02:18:14.282Z,0
2022-11-18T02:19:14.457Z,0
2022-11-18T02:20:15.313Z,0
2022-11-18T02:21:15.789Z,0
2022-11-18T02:22:15.982Z,0
2022-11-18T02:23:16.595Z,0
2022-11-18T02:24:17.212Z,0
2022-11-18T02:25:18.741Z,0
2022-11-18T02:26:18.063Z,0
2022-11-18T02:27:18.962Z,0
2022-11-18T02:28:19.957Z,0
2022-11-18T02:29:20.763Z,0
2022-11-18T02:30:21.420Z,0
2022-11-18T02:31:21.608Z,0
2022-11-18T02:32:22.242Z,0
2022-11-18T02:33:23.136Z,0
2022-11-18T02:34:24.113Z,0
2022-11-18T02:35:24.736Z,0
2022-11-18T02:36:25.914Z,0
2022-11-18T02:37:25.807Z,0
2022-11-18T02:38:27.022Z,0
2022-11-18T02:39:27.762Z,0
2022-11-18T02:40:26.890Z,0
2022-11-18T02:41:28.385Z,0
2022-11-18T02:42:28.034Z,0
2022-11-18T02:43:28.948Z,0
2022-11-18T02:44:30.223Z,0
2022-11-18T02:45:30.415Z,0
2022-11-18T02:46:30.899Z,0
2022-11-18T02:47:30.496Z,0
2022-11-18T02:48:31.136Z,0
2022-11-18T02:49:33.191Z,0
2022-11-18T02:50:32.604Z,0
2022-11-18T02:51:32.201Z,0
2022-11-18T02:52:32.826Z,0
2022-11-18T02:53:33.741Z,0
2022-11-18T02:54:34.354Z,0
2022-11-18T02:55:35.843Z,0
2022-11-18T02:56:35.755Z,0
2022-11-18T02:57:36.394Z,0
2022-11-18T02:58:37.270Z,0
2022-11-18T02:59:38.202Z,0
2022-11-18T03:00:39.326Z,0
2022-11-18T03:01:40.141Z,0
2022-11-18T03:02:40.354Z,0
2022-11-18T03:03:39.700Z,0
2022-11-18T03:04:40.911Z,0
2022-11-18T03:05:41.579Z,0
2022-11-18T03:06:42.174Z,0
2022-11-18T03:07:43.470Z,0
2022-11-18T03:08:43.493Z,0
2022-11-18T03:09:44.976Z,0
2022-11-18T03:10:44.423Z,0
2022-11-18T03:11:45.342Z,0
2022-11-18T03:12:46.535Z,0
2022-11-18T03:13:46.719Z,0
2022-11-18T03:14:46.928Z,0
2022-11-18T03:15:47.553Z,0
2022-11-18T03:16:47.894Z,0
2022-11-18T03:17:48.226Z,0
2022-11-18T03:18:49.428Z,0
2022-11-18T03:19:50.679Z,0
2022-11-18T03:20:50.970Z,0
2022-11-18T03:21:51.142Z,0
2022-11-18T03:22:51.755Z,0
2022-11-18T03:23:52.654Z,0
2022-11-18T03:24:53.602Z,0
2022-11-18T03:25:54.490Z,0
2022-11-18T03:26:55.673Z,0
2022-11-18T03:27:56.007Z,0
2022-11-18T03:28:57.019Z,0
2022-11-18T03:29:57.668Z,0
2022-11-18T03:30:59.283Z,0
2022-11-18T03:31:59.469Z,0
2022-11-18T03:32:59.081Z,0
2022-11-18T03:33:59.417Z,0
2022-11-18T03:35:00.646Z,0
2022-11-18T03:36:00.742Z,0
2022-11-18T03:37:16.334Z,0
2022-11-18T03:38:02.527Z,0
2022-11-18T03:39:03.479Z,0
2022-11-18T03:40:03.962Z,0
2022-11-18T03:41:04.239Z,0
2022-11-18T03:42:04.438Z,0
2022-11-18T03:43:04.049Z,0
2022-11-18T03:44:05.281Z,0
2022-11-18T03:45:09.421Z,0
2022-11-18T03:46:06.431Z,0
2022-11-18T03:47:06.633Z,0
2022-11-18T03:48:06.550Z,0
2022-11-18T03:49:07.746Z,0
2022-11-18T03:50:08.714Z,0
2022-11-18T03:51:10.110Z,0
2022-11-18T03:52:10.318Z,0
2022-11-18T03:53:10.519Z,0
2022-11-18T03:54:11.003Z,0
2022-11-18T03:55:10.977Z,0
2022-11-18T03:56:17.080Z,0
2022-11-18T03:57:12.575Z,0
2022-11-18T03:58:12.193Z,0
2022-11-18T03:59:12.808Z,0
2022-11-18T04:00:13.472Z,0
2022-11-18T04:01:13.884Z,0
2022-11-18T04:02:15.460Z,0
2022-11-18T04:03:15.392Z,0
2022-11-18T04:04:16.325Z,0
2022-11-18T04:05:16.545Z,0
2022-11-18T04:06:16.776Z,0
2022-11-18T04:07:17.155Z,0
2022-11-18T04:08:17.077Z,0
2022-11-18T04:09:17.891Z,0
2022-11-18T04:10:17.918Z,0
2022-11-18T04:11:18.646Z,0
2022-11-18T04:12:19.904Z,0
2022-11-18T04:13:23.025Z,0
2022-11-18T04:14:19.665Z,0
2022-11-18T04:15:20.592Z,0
2022-11-18T04:16:21.803Z,0
2022-11-18T04:17:21.994Z,0
2022-11-18T04:18:21.879Z,0
2022-11-18T04:19:23.151Z,0
2022-11-18T04:20:23.876Z,0
2022-11-18T04:21:23.611Z,0
2022-11-18T04:22:24.206Z,0
2022-11-18T04:23:25.139Z,0
2022-11-18T04:24:24.756Z,0
2022-11-18T04:25:25.377Z,0
2022-11-18T04:26:26.296Z,0
2022-11-18T04:27:26.216Z,0
2022-11-18T04:28:27.407Z,0
2022-11-18T04:29:28.724Z,0
2022-11-18T04:30:27.933Z,0
2022-11-18T04:31:28.978Z,0
2022-11-18T04:32:28.870Z,0
2022-11-18T04:33:29.785Z,0
2022-11-18T04:34:30.682Z,0
2022-11-18T04:35:31.645Z,0
2022-11-18T04:36:32.293Z,0
2022-11-18T04:37:33.198Z,0
2022-11-18T04:38:38.226Z,0
2022-11-18T04:39:35.144Z,0
2022-11-18T04:40:35.768Z,0
2022-11-18T04:41:36.504Z,0
2022-11-18T04:42:37.134Z,0
2022-11-18T04:43:38.322Z,0
2022-11-18T04:44:38.812Z,0
2022-11-18T04:45:39.038Z,0
2022-11-18T04:46:39.237Z,0
2022-11-18T04:47:39.731Z,0
2022-11-18T04:48:39.343Z,0
2022-11-18T04:49:40.258Z,0
2022-11-18T04:50:40.803Z,0
2022-11-18T04:51:40.909Z,0
2022-11-18T04:52:40.817Z,0
2022-11-18T04:53:41.746Z,0
2022-11-18T04:54:41.665Z,0
2022-11-18T04:55:42.848Z,0
2022-11-18T04:56:48.642Z,0
2022-11-18T04:57:43.644Z,0
2022-11-18T04:58:44.839Z,0
2022-11-18T04:59:45.474Z,0
2022-11-18T05:00:46.395Z,0
2022-11-18T05:01:47.505Z,0
2022-11-18T05:02:48.143Z,0
2022-11-18T05:03:55.550Z,0
2022-11-18T05:04:49.138Z,0
2022-11-18T05:05:50.543Z,0
2022-11-18T05:06:50.533Z,0
2022-11-18T05:07:52.342Z,0
2022-11-18T05:08:52.266Z,0
2022-11-18T05:09:52.179Z,0
2022-11-18T05:10:53.359Z,0
2022-11-18T05:11:53.066Z,0
2022-11-18T05:12:53.684Z,0
2022-11-18T05:13:54.312Z,0
2022-11-18T05:15:02.189Z,0
2022-11-18T05:15:56.154Z,0
2022-11-18T05:16:56.815Z,0
2022-11-18T05:17:57.703Z,0
2022-11-18T05:18:58.604Z,0
2022-11-18T05:19:59.499Z,0
2022-11-18T05:21:00.451Z,0
2022-11-18T05:22:01.468Z,0
2022-11-18T05:23:01.076Z,0
2022-11-18T05:24:01.692Z,0
2022-11-18T05:25:03.175Z,0
2022-11-18T05:26:07.571Z,0
2022-11-18T05:27:03.468Z,0
2022-11-18T05:28:04.656Z,0
2022-11-18T05:29:04.553Z,0
2022-11-18T05:30:05.171Z,0
2022-11-18T05:31:06.098Z,0
2022-11-18T05:32:06.447Z,0
2022-11-18T05:33:06.629Z,0
2022-11-18T05:34:07.117Z,0
2022-11-18T05:35:06.741Z,0
2022-11-18T05:36:11.880Z,0
2022-11-18T05:37:08.387Z,0
2022-11-18T05:38:08.563Z,0
2022-11-18T05:39:08.757Z,0
2022-11-18T05:40:09.372Z,0
2022-11-18T05:41:10.257Z,0
2022-11-18T05:42:10.641Z,0
2022-11-18T05:43:11.537Z,0
2022-11-18T05:44:12.734Z,0
2022-11-18T05:45:15.190Z,0
2022-11-18T05:46:12.979Z,0
2022-11-18T05:47:14.298Z,0
2022-11-18T05:48:14.492Z,0
2022-11-18T05:49:14.844Z,0
2022-11-18T05:50:18.587Z,0
2022-11-18T05:51:16.604Z,0
2022-11-18T05:52:16.394Z,0
2022-11-18T05:53:17.913Z,0
2022-11-18T05:54:18.107Z,0
2022-11-18T05:55:18.086Z,0
2022-11-18T05:56:19.281Z,0
2022-11-18T05:57:20.485Z,0
2022-11-18T05:58:20.706Z,0
2022-11-18T05:59:22.408Z,0
2022-11-18T06:00:22.293Z,0
2022-11-18T06:01:23.513Z,0
2022-11-18T06:02:24.694Z,0
2022-11-18T06:03:30.368Z,0
2022-11-18T06:04:24.852Z,0
2022-11-18T06:05:25.039Z,0
2022-11-18T06:06:25.280Z,0
2022-11-18T06:07:26.577Z,0
2022-11-18T06:08:26.569Z,0
2022-11-18T06:09:28.189Z,0
2022-11-18T06:10:28.378Z,0
2022-11-18T06:11:27.989Z,0
2022-11-18T06:12:29.016Z,0
2022-11-18T06:13:29.923Z,0
2022-11-18T06:14:30.836Z,0
2022-11-18T06:15:31.753Z,0
2022-11-18T06:16:34.287Z,0
2022-11-18T06:17:32.096Z,0
2022-11-18T06:18:33.305Z,0
2022-11-18T06:19:33.961Z,0
2022-11-18T06:20:33.598Z,0
2022-11-18T06:21:34.657Z,0
2022-11-18T06:22:34.759Z,0
2022-11-18T06:23:34.951Z,0
2022-11-18T06:24:34.864Z,0
2022-11-18T06:25:36.354Z,0
2022-11-18T06:26:36.549Z,0
2022-11-18T06:27:36.734Z,0
2022-11-18T06:28:37.071Z,0
2022-11-18T06:29:43.870Z,0
2022-11-18T06:30:38.588Z,0
2022-11-18T06:31:39.790Z,0
2022-11-18T06:32:41.187Z,0
2022-11-18T06:33:41.388Z,0
2022-11-18T06:34:47.403Z,0
2022-11-18T06:35:42.327Z,0
2022-11-18T06:36:43.003Z,0
2022-11-18T06:37:43.400Z,0
2022-11-18T06:38:44.596Z,0
2022-11-18T06:39:44.801Z,0
2022-11-18T06:40:50.712Z,0
2022-11-18T06:41:45.031Z,0
2022-11-18T06:42:45.469Z,0
2022-11-18T06:43:46.689Z,0
2022-11-18T06:44:47.641Z,0
2022-11-18T06:45:47.590Z,0
2022-11-18T06:46:49.097Z,0
2022-11-18T06:47:49.710Z,0
2022-11-18T06:48:49.637Z,0
2022-11-18T06:49:50.817Z,0
2022-11-18T06:50:50.730Z,0
2022-11-18T06:51:51.673Z,5.63
2022-11-18T06:52:52.408Z,5.63
2022-11-18T06:53:53.313Z,5.63
2022-11-18T06:54:53.363Z,5.63
2022-11-18T06:55:54.701Z,5.63
2022-11-18T06:56:55.315Z,5.63
2022-11-18T06:57:55.732Z,5.63
2022-11-18T06:58:56.370Z,5.63
2022-11-18T07:00:01.736Z,5.63
2022-11-18T07:00:58.504Z,11.25
2022-11-18T07:01:58.641Z,11.25
2022-11-18T07:02:58.627Z,11.25
2022-11-18T07:03:59.255Z,11.25
2022-11-18T07:05:00.164Z,11.25
2022-11-18T07:06:00.993Z,11.25
2022-11-18T07:07:02.395Z,11.25
2022-11-18T07:08:02.650Z,11.25
2022-11-18T07:09:02.844Z,11.25
2022-11-18T07:10:03.754Z,11.25
2022-11-18T07:11:04.680Z,11.25
2022-11-18T07:12:04.600Z,11.25
2022-11-18T07:13:05.637Z,11.25
2022-11-18T07:14:06.275Z,11.25
2022-11-18T07:15:07.761Z,11.25
2022-11-18T07:16:07.657Z,11.25
2022-11-18T07:17:09.165Z,11.25
2022-11-18T07:18:09.429Z,11.25
2022-11-18T07:19:10.049Z,11.25
2022-11-18T07:20:10.390Z,11.25
2022-11-18T07:21:11.289Z,11.25
2022-11-18T07:22:13.044Z,11.25
2022-11-18T07:23:12.683Z,11.25
2022-11-18T07:24:12.890Z,11.25
2022-11-18T07:25:13.799Z,11.25
2022-11-18T07:26:14.736Z,11.25
2022-11-18T07:27:15.057Z,11.25
2022-11-18T07:28:15.793Z,16.88
2022-11-18T07:29:17.245Z,16.88
2022-11-18T07:30:17.277Z,16.88
2022-11-18T07:31:18.490Z,16.88
2022-11-18T07:32:19.017Z,16.88
2022-11-18T07:33:19.640Z,16.88
2022-11-18T07:34:19.583Z,16.88
2022-11-18T07:35:20.492Z,16.88
2022-11-18T07:36:20.689Z,16.88
2022-11-18T07:37:20.938Z,16.88
2022-11-18T07:38:21.600Z,16.88
2022-11-18T07:39:23.463Z,16.88
2022-11-18T07:40:23.952Z,16.88
2022-11-18T07:41:24.443Z,16.88
2022-11-18T07:42:24.337Z,16.88
2022-11-18T07:43:25.070Z,22.5
2022-11-18T07:44:24.666Z,22.5
2022-11-18T07:45:26.173Z,22.5
2022-11-18T07:46:25.790Z,22.5
2022-11-18T07:47:27.318Z,22.5
2022-11-18T07:48:27.261Z,22.5
2022-11-18T07:49:28.743Z,22.5
2022-11-18T07:50:27.734Z,22.5
2022-11-18T07:51:28.664Z,28.13
2022-11-18T07:52:30.355Z,28.13
2022-11-18T07:53:29.858Z,28.13
2022-11-18T07:54:31.379Z,28.13
2022-11-18T07:55:37.476Z,33.75
2022-11-18T07:56:31.697Z,33.75
2022-11-18T07:57:32.916Z,33.75
2022-11-18T07:58:32.969Z,39.38
2022-11-18T07:59:35.043Z,39.38
2022-11-18T08:00:35.392Z,39.38
2022-11-18T08:01:36.076Z,39.38
2022-11-18T08:02:36.732Z,39.38
2022-11-18T08:03:36.724Z,39.38
2022-11-18T08:04:37.164Z,39.38
2022-11-18T08:05:38.794Z,39.38
2022-11-18T08:06:39.305Z,39.38
2022-11-18T08:07:39.960Z,39.38
2022-11-18T08:08:40.213Z,39.38
2022-11-18T08:09:40.398Z,39.38
2022-11-18T08:10:40.628Z,45
2022-11-18T08:11:40.817Z,45
2022-11-18T08:12:41.046Z,45
2022-11-18T08:13:41.063Z,45
2022-11-18T08:14:41.968Z,45
2022-11-18T08:15:42.582Z,45
2022-11-18T08:16:42.923Z,45
2022-11-18T08:17:43.992Z,45
2022-11-18T08:18:45.304Z,50.63
2022-11-18T08:19:45.224Z,50.63
2022-11-18T08:20:46.205Z,50.63
2022-11-18T08:21:47.429Z,56.25
2022-11-18T08:22:47.410Z,56.25
2022-11-18T08:23:53.908Z,56.25
2022-11-18T08:24:49.497Z,56.25
2022-11-18T08:25:49.984Z,56.25
2022-11-18T08:26:50.182Z,61.88
2022-11-18T08:27:50.122Z,61.88
2022-11-18T08:28:51.488Z,61.88
2022-11-18T08:29:52.043Z,61.88
2022-11-18T08:30:52.245Z,61.88
2022-11-18T08:31:53.614Z,61.88
2022-11-18T08:32:53.851Z,61.88
2022-11-18T08:33:54.633Z,61.88
2022-11-18T08:34:54.866Z,61.88
2022-11-18T08:35:54.838Z,61.88
2022-11-18T08:36:54.798Z,67.5
2022-11-18T08:37:56.176Z,67.5
2022-11-18T08:38:56.142Z,67.5
2022-11-18T08:39:57.337Z,73.13
2022-11-18T08:40:57.278Z,73.13
2022-11-18T08:41:58.482Z,73.13
2022-11-18T08:42:59.157Z,73.13
2022-11-18T08:43:59.614Z,73.13
2022-11-18T08:45:00.805Z,73.13
2022-11-18T08:46:00.724Z,73.13
2022-11-18T08:47:01.666Z,78.75
2022-11-18T08:48:03.262Z,78.75
2022-11-18T08:49:03.289Z,78.75
2022-11-18T08:50:03.494Z,78.75
2022-11-18T08:51:04.004Z,90
2022-11-18T08:52:03.681Z,101.25
2022-11-18T08:53:04.943Z,106.88
2022-11-18T08:54:05.405Z,101.25
2022-11-18T08:55:05.308Z,95.63
2022-11-18T08:56:12.733Z,95.63
2022-11-18T08:57:06.930Z,84.38
2022-11-18T08:58:06.848Z,78.75
2022-11-18T08:59:08.346Z,67.5
2022-11-18T09:00:08.244Z,50.63
2022-11-18T09:01:09.238Z,45
2022-11-18T09:02:10.916Z,39.38
2022-11-18T09:03:11.525Z,39.38
2022-11-18T09:04:12.262Z,45
2022-11-18T09:05:12.517Z,45
2022-11-18T09:06:12.725Z,45
2022-11-18T09:07:12.925Z,50.63
2022-11-18T09:08:13.211Z,56.25
2022-11-18T09:09:17.924Z,67.5
2022-11-18T09:10:14.107Z,67.5
2022-11-18T09:11:15.114Z,67.5
2022-11-18T09:12:15.112Z,67.5
2022-11-18T09:15:14.108Z,61.88
2022-11-18T09:16:02.245Z,67.5
2022-11-18T09:17:03.218Z,73.13
2022-11-18T09:18:03.876Z,73.13
2022-11-18T09:20:05.811Z,73.13
2022-11-18T09:21:05.752Z,73.13
2022-11-18T09:22:05.378Z,78.75
2022-11-18T09:23:06.005Z,78.75
2022-11-18T09:24:07.260Z,78.75
2022-11-18T09:25:07.225Z,78.75
2022-11-18T09:26:08.223Z,78.75
2022-11-18T09:27:12.348Z,78.75
2022-11-18T09:28:09.144Z,78.75
2022-11-18T09:29:10.397Z,78.75
2022-11-18T09:30:10.913Z,73.13
2022-11-18T09:31:10.549Z,73.13
2022-11-18T09:32:11.863Z,78.75
2022-11-18T09:33:15.401Z,78.75
2022-11-18T09:34:13.182Z,73.13
2022-11-18T09:35:13.283Z,73.13
2022-11-18T09:36:13.596Z,73.13
2022-11-18T09:37:13.734Z,73.13
2022-11-18T09:38:13.999Z,73.13
2022-11-18T09:39:15.278Z,78.75
2022-11-18T09:40:15.882Z,90
2022-11-18T09:41:16.464Z,106.88
2022-11-18T09:42:16.652Z,106.88
2022-11-18T09:43:16.858Z,101.25
2022-11-18T09:44:16.521Z,118.13
2022-11-18T09:45:31.024Z,118.13
2022-11-18T09:46:18.764Z,112.5
2022-11-18T09:47:19.461Z,112.5
2022-11-18T09:48:20.811Z,112.5
2022-11-18T09:49:22.525Z,106.88
2022-11-18T09:51:01.657Z,101.25
2022-11-18T09:51:23.292Z,101.25
2022-11-18T09:52:24.214Z,95.63
2022-11-18T09:53:25.451Z,84.38
2022-11-18T09:54:25.746Z,73.13
2022-11-18T09:55:26.714Z,73.13
2022-11-18T09:56:27.070Z,73.13
2022-11-18T09:57:26.989Z,78.75
2022-11-18T09:58:27.927Z,84.38
2022-11-18T09:59:27.813Z,84.38
2022-11-18T10:00:29.309Z,84.38
2022-11-18T10:01:31.784Z,78.75
2022-11-18T10:02:30.179Z,78.75
2022-11-18T10:03:30.752Z,73.13
2022-11-18T10:04:31.480Z,73.13
2022-11-18T10:05:31.159Z,78.75
2022-11-18T10:06:36.835Z,78.75
2022-11-18T10:07:32.212Z,78.75
2022-11-18T10:08:32.459Z,84.38
2022-11-18T10:09:32.443Z,95.63
2022-11-18T10:10:33.657Z,101.25
2022-11-18T10:11:38.681Z,106.88
2022-11-18T10:12:34.527Z,106.88
2022-11-18T10:13:35.462Z,106.88
2022-11-18T10:14:37.193Z,101.25
2022-11-18T10:15:37.426Z,90
2022-11-18T10:16:37.798Z,95.63
2022-11-18T10:17:38.004Z,95.63
2022-11-18T10:19:12.115Z,90
2022-11-18T10:19:39.071Z,90
2022-11-18T10:20:39.632Z,95.63
2022-11-18T10:21:39.868Z,84.38
2022-11-18T10:22:41.830Z,90
2022-11-18T10:23:41.050Z,90
2022-11-18T10:24:41.346Z,95.63
2022-11-18T10:25:41.307Z,84.38
2022-11-18T10:26:42.016Z,78.75
2022-11-18T10:27:42.653Z,73.13
2022-11-18T10:28:43.580Z,73.13
2022-11-18T10:29:44.091Z,73.13
2022-11-18T10:30:44.346Z,73.13
2022-11-18T10:31:43.973Z,73.13
2022-11-18T10:32:44.853Z,73.13
2022-11-18T10:33:46.106Z,73.13
2022-11-18T10:34:46.057Z,73.13
2022-11-18T10:35:46.976Z,78.75
2022-11-18T10:36:47.331Z,73.13
2022-11-18T10:38:22.238Z,56.25
2022-11-18T10:38:55.187Z,56.25
2022-11-18T10:39:49.742Z,56.25
2022-11-18T10:40:49.411Z,61.88
2022-11-18T10:41:50.474Z,61.88
2022-11-18T10:42:50.838Z,61.88
2022-11-18T10:43:52.343Z,67.5
2022-11-18T10:44:52.896Z,67.5
2022-11-18T10:45:52.521Z,61.88
2022-11-18T10:46:53.540Z,67.5
2022-11-18T10:47:53.794Z,67.5
2022-11-18T10:48:53.124Z,67.5
2022-11-18T10:49:54.342Z,67.5
2022-11-18T10:51:00.399Z,61.88
2022-11-18T10:51:55.931Z,61.88
2022-11-18T10:52:56.141Z,61.88
2022-11-18T10:53:56.788Z,61.88
2022-11-18T10:54:58.084Z,56.25
2022-11-18T10:55:58.401Z,56.25
2022-11-18T10:57:03.937Z,56.25
2022-11-18T10:57:58.871Z,56.25
2022-11-18T10:58:59.064Z,56.25
2022-11-18T11:00:00.077Z,56.25
2022-11-18T11:01:00.021Z,50.63
2022-11-18T11:02:04.116Z,56.25
2022-11-18T11:03:01.735Z,56.25
2022-11-18T11:04:02.771Z,61.88
2022-11-18T11:05:03.313Z,61.88
2022-11-18T11:06:03.578Z,61.88
2022-11-18T11:07:04.543Z,61.88
2022-11-18T11:08:46.957Z,50.63
2022-11-18T11:09:03.596Z,50.63
2022-11-18T11:10:04.571Z,50.63
2022-11-18T11:11:09.548Z,45
2022-11-18T11:12:05.446Z,39.38
2022-11-18T11:13:06.662Z,39.38
2022-11-18T11:14:07.360Z,39.38
2022-11-18T11:15:08.007Z,39.38
2022-11-18T11:16:08.941Z,33.75
2022-11-18T11:17:09.977Z,39.38
2022-11-18T11:18:10.126Z,50.63
2022-11-18T11:19:09.773Z,50.63
2022-11-18T11:20:10.789Z,45
2022-11-18T11:21:11.127Z,39.38
2022-11-18T11:22:12.645Z,39.38
2022-11-18T11:23:12.864Z,33.75
2022-11-18T11:24:13.061Z,33.75
2022-11-18T11:25:14.343Z,39.38
2022-11-18T11:29:01.702Z,39.38
2022-11-18T11:30:01.601Z,39.38
2022-11-18T11:31:03.333Z,39.38
2022-11-18T11:32:03.277Z,39.38
2022-11-18T11:33:03.474Z,39.38
2022-11-18T11:34:03.714Z,39.38
2022-11-18T11:35:03.956Z,39.38
2022-11-18T11:36:03.926Z,39.38
2022-11-18T11:37:05.143Z,45
2022-11-18T11:38:05.057Z,39.38
2022-11-18T11:39:27.038Z,39.38
2022-11-18T11:40:06.267Z,33.75
2022-11-18T11:41:07.542Z,39.38
2022-11-18T11:42:07.465Z,39.38
2022-11-18T11:43:08.074Z,45
2022-11-18T11:44:09.024Z,45
2022-11-18T11:45:08.620Z,50.63
2022-11-18T11:46:10.125Z,50.63
2022-11-18T11:47:10.608Z,50.63
2022-11-18T11:48:10.811Z,50.63
2022-11-18T11:49:10.858Z,56.25
2022-11-18T11:50:12.125Z,61.88
2022-11-18T11:51:20.227Z,61.88
2022-11-18T11:52:12.427Z,61.88
2022-11-18T11:53:12.995Z,67.5
2022-11-18T11:54:12.915Z,67.5
2022-11-18T11:55:14.133Z,67.5
2022-11-18T11:56:17.141Z,73.13
2022-11-18T11:57:15.120Z,73.13
2022-11-18T11:58:15.075Z,73.13
2022-11-18T11:59:16.081Z,78.75
2022-11-18T12:00:16.213Z,78.75
2022-11-18T12:01:17.412Z,73.13
2022-11-18T12:02:17.421Z,73.13
2022-11-18T12:03:19.215Z,73.13
2022-11-18T12:04:19.185Z,73.13
2022-11-18T12:05:20.253Z,67.5
2022-11-18T12:06:21.521Z,67.5
2022-11-18T12:07:22.318Z,67.5
2022-11-18T12:08:23.884Z,67.5
2022-11-18T12:09:24.451Z,67.5
2022-11-18T12:10:24.459Z,67.5
2022-11-18T12:11:25.787Z,67.5
2022-11-18T12:12:25.685Z,61.88
2022-11-18T12:13:26.603Z,61.88
2022-11-18T12:14:26.858Z,56.25
2022-11-18T12:15:26.768Z,61.88
2022-11-18T12:16:27.738Z,61.88
2022-11-18T12:17:28.650Z,56.25
2022-11-18T12:18:29.899Z,61.88
2022-11-18T12:19:30.208Z,61.88
2022-11-18T12:20:30.133Z,61.88
2022-11-18T12:21:34.880Z,61.88
2022-11-18T12:22:31.309Z,61.88
2022-11-18T12:23:31.565Z,61.88
2022-11-18T12:24:32.505Z,56.25
2022-11-18T12:25:32.395Z,56.25
2022-11-18T12:26:34.204Z,56.25
2022-11-18T12:27:34.519Z,56.25
2022-11-18T12:28:34.835Z,56.25
2022-11-18T12:29:35.795Z,56.25
2022-11-18T12:30:36.298Z,56.25
2022-11-18T12:31:36.503Z,50.63
2022-11-18T12:32:37.122Z,50.63
2022-11-18T12:33:37.783Z,50.63
2022-11-18T12:34:39.268Z,56.25
2022-11-18T12:35:39.461Z,50.63
2022-11-18T12:36:39.704Z,45
2022-11-18T12:37:40.213Z,45
2022-11-18T12:38:40.725Z,45
2022-11-18T12:39:40.467Z,45
2022-11-18T12:40:41.079Z,45
2022-11-18T12:41:42.389Z,39.38
2022-11-18T12:42:42.011Z,39.38
2022-11-18T12:43:42.909Z,39.38
2022-11-18T12:44:43.855Z,39.38
2022-11-18T12:45:44.783Z,39.38
2022-11-18T12:46:51.091Z,45
2022-11-18T12:47:46.437Z,45
2022-11-18T12:48:47.339Z,45
2022-11-18T12:49:48.426Z,45
2022-11-18T12:50:49.338Z,45
2022-11-18T12:51:49.552Z,39.38
2022-11-18T12:52:49.191Z,39.38
2022-11-18T12:53:50.824Z,39.38
2022-11-18T12:54:50.425Z,39.38
2022-11-18T12:55:51.345Z,45
2022-11-18T12:56:51.581Z,45
2022-11-18T12:57:52.517Z,39.38
2022-11-18T12:58:52.436Z,39.38
2022-11-18T12:59:53.792Z,39.38
2022-11-18T13:00:54.585Z,45
2022-11-18T13:01:54.483Z,39.38
2022-11-18T13:02:54.837Z,39.38
2022-11-18T13:03:55.754Z,45
2022-11-18T13:05:04.368Z,39.38
2022-11-18T13:05:57.583Z,45
2022-11-18T13:06:58.034Z,50.63
2022-11-18T13:07:57.716Z,50.63
2022-11-18T13:08:58.057Z,50.63
2022-11-18T13:09:59.947Z,61.88
2022-11-18T13:11:07.111Z,90
2022-11-18T13:12:01.940Z,56.25
2022-11-18T13:13:00.889Z,50.63
2022-11-18T13:14:01.806Z,50.63
2022-11-18T13:15:02.783Z,56.25
2022-11-18T13:16:02.984Z,56.25
2022-11-18T13:17:03.187Z,56.25
2022-11-18T13:18:04.104Z,56.25
2022-11-18T13:19:04.307Z,50.63
2022-11-18T13:20:05.623Z,56.25
2022-11-18T13:21:05.273Z,56.25
2022-11-18T13:22:06.775Z,50.63
2022-11-18T13:23:06.699Z,45
2022-11-18T13:24:12.744Z,45
2022-11-18T13:25:08.691Z,45
2022-11-18T13:26:08.563Z,56.25
2022-11-18T13:27:09.800Z,73.13
2022-11-18T13:28:09.696Z,50.63
2022-11-18T13:29:10.592Z,45
2022-11-18T13:30:11.789Z,45
2022-11-18T13:31:11.711Z,45
2022-11-18T13:32:12.620Z,45
2022-11-18T13:33:13.554Z,56.25
2022-11-18T13:34:13.778Z,50.63
2022-11-18T13:35:14.029Z,50.63
2022-11-18T13:36:14.041Z,56.25
2022-11-18T13:37:15.559Z,67.5
2022-11-18T13:38:15.775Z,50.63
2022-11-18T13:39:16.172Z,50.63
2022-11-18T13:40:16.748Z,45
2022-11-18T13:41:16.958Z,45
2022-11-18T13:42:17.188Z,45
2022-11-18T13:43:17.678Z,39.38
2022-11-18T13:44:17.873Z,39.38
2022-11-18T13:45:18.648Z,45
2022-11-18T13:46:19.534Z,45
2022-11-18T13:47:20.186Z,50.63
2022-11-18T13:48:21.107Z,50.63
2022-11-18T13:49:22.405Z,56.25
2022-11-18T13:50:22.120Z,56.25
2022-11-18T13:51:22.465Z,56.25
2022-11-18T13:52:23.987Z,56.25
2022-11-18T13:53:23.919Z,50.63
2022-11-18T13:54:24.826Z,50.63
2022-11-18T13:55:25.750Z,50.63
2022-11-18T13:56:29.019Z,50.63
2022-11-18T13:57:26.908Z,50.63
2022-11-18T13:58:26.879Z,50.63
2022-11-18T13:59:34.443Z,45
2022-11-18T14:00:27.757Z,45
2022-11-18T14:01:29.122Z,45
2022-11-18T14:02:29.350Z,45
2022-11-18T14:03:30.295Z,39.38
2022-11-18T14:04:30.538Z,39.38
2022-11-18T14:05:36.913Z,39.38